Pagina principale
METAR-TAF:

METAR-TAF

Aeroporti :

Aeroporto di Amendola

Foggia, Italia

latitudine: 41-32N, longitudine: 015-43E, altezza: 57 m

Osservazione

Il bollettino è stato emesso 1 ora e 3 minuti fa, alle 12:55 UTC
Vento 16 kt da ovest/sud-ovest
Temperature 25°C
Umidità 47%
Pressione 1003 hPa
Visibilità 10 km o più
Poco nuvoloso ad un'altezza di 3500 ft

METAR: LIBA 271255Z 24016KT 9999 FEW035 25/13 Q1003 RMK FEW VIS MIN 9999 WIND THR11 24021KT WIND THR29 /////KT BLU

Ora: 15:58 (13:58 UTC)

Previsione

Il bollettino è stato emesso 2 ore e 58 minuti fa, alle 11:00 UTC
Previsione valida dal 27 alle 12 UTC al 27 alle 21 UTC
Vento 16 kt da sud-ovest
Visibilità 10 km o più
Poco nuvoloso ad un'altezza di 3000 ft
Temporaneamente
dal 27 alle 12 UTC al 27 alle 15 UTC
Vento 20 kt da ovest/sud-ovest con raffiche fino a 30 kt

TAF: LIBA 271100Z 2712/2721 23016KT 9999 FEW030 TEMPO 2712/2715 24020G30KT

Osservazioni e previsioni meteorologiche di più di 4000 aeroporti (messaggi METAR e TAF).

Le stazioni disponibili sono rappresentate dai dischi gialli e rossi sulla carta.

Puntare il mouse per vedere il nome della stazione.

Clicca sopra per visualizzare le osservazioni e previsioni meteorologiche.

Per cambiare la mappa : fare clic sui pulsanti verdi con una croce nera per ingrandire, il pulsante verde con un trattino per diminuire, o sulla freccia verde per le mappe adiacenti.


METAR-TAF: